Time;durP1;ratioP1;P1;durP2;ratioP2;P2;SDS_P1;SDS_P2;PMS_P1;PMS_P2;Temp;Humidity;BMP_temperature;BMP_pressure;BME280_temperature;BME280_humidity;BME280_pressure;Samples;Min_cycle;Max_cycle;Signal;HPM_P1;HPM_P2
2023/08/11 07:14:34;;;;;;;6.55;2.90;;;;;;;21.35;67.96;97119.97;2100672;27;20538;-68
2023/08/11 07:16:53;;;;;;;11.27;3.30;;;;;;;21.49;65.97;97127.66;2086196;28;20560;-68
2023/08/11 07:17:55;;;;;;;9.43;3.80;;;;;;;21.49;64.89;97114.38;2080156;28;20244;-68
2023/08/11 07:18:56;;;;;;;15.20;3.20;;;;;;;21.64;66.05;97122.94;2080242;28;20204;-68
2023/08/11 07:19:58;;;;;;;6.00;3.88;;;;;;;21.75;65.70;97118.53;2077328;28;20204;-68
2023/08/11 07:21:00;;;;;;;12.52;3.20;;;;;;;21.87;64.76;97119.38;2071766;28;20221;-69
2023/08/11 07:22:01;;;;;;;8.65;2.65;;;;;;;22.11;64.81;97135.06;2071992;28;20221;-69
2023/08/11 07:23:03;;;;;;;7.38;2.45;;;;;;;22.20;64.22;97121.00;2072153;28;20251;-69
2023/08/11 07:24:04;;;;;;;4.22;2.40;;;;;;;22.28;63.23;97130.97;2072070;28;20205;-69
2023/08/11 07:25:06;;;;;;;11.98;3.05;;;;;;;22.27;62.97;97132.81;2071394;28;20217;-69
2023/08/11 07:26:08;;;;;;;9.13;3.42;;;;;;;22.52;64.26;97138.72;2069157;28;20194;-69
2023/08/11 07:27:09;;;;;;;6.90;3.40;;;;;;;22.61;63.72;97132.63;2070732;28;20573;-71
2023/08/11 07:28:11;;;;;;;9.07;4.18;;;;;;;22.93;63.14;97130.78;2070814;28;20197;-71
2023/08/11 07:29:13;;;;;;;9.50;4.75;;;;;;;23.03;62.70;97130.81;2069021;28;20837;-70
2023/08/11 07:30:15;;;;;;;9.60;3.90;;;;;;;23.24;61.26;97134.28;2069349;28;20771;-71
2023/08/11 07:31:16;;;;;;;7.00;3.30;;;;;;;23.29;60.90;97137.38;2070622;28;20194;-72
2023/08/11 07:32:18;;;;;;;5.22;3.33;;;;;;;23.51;60.49;97129.28;2070892;28;20220;-72
2023/08/11 07:33:19;;;;;;;7.93;3.03;;;;;;;23.37;60.18;97136.69;2070981;28;20674;-72
2023/08/11 07:34:21;;;;;;;5.20;3.17;;;;;;;23.57;58.91;97126.09;2070845;28;20607;-71
2023/08/11 07:35:24;;;;;;;4.15;2.80;;;;;;;23.52;59.60;97137.16;2070115;28;20236;-71
2023/08/11 07:36:25;;;;;;;6.25;2.95;;;;;;;23.60;59.40;97134.66;2070745;28;20217;-72
2023/08/11 07:37:27;;;;;;;8.38;3.40;;;;;;;23.77;59.18;97143.78;2070748;28;20577;-73
2023/08/11 07:38:28;;;;;;;5.70;2.55;;;;;;;24.04;58.03;97136.09;2070783;28;20252;-72
2023/08/11 07:39:30;;;;;;;15.00;11.57;;;;;;;23.70;57.62;97141.81;2070678;28;20305;-72
2023/08/11 07:40:31;;;;;;;12.10;2.95;;;;;;;23.96;57.76;97150.13;2070289;28;20241;-70
2023/08/11 07:41:34;;;;;;;7.20;2.92;;;;;;;23.92;58.58;97136.22;2070644;28;20202;-70
2023/08/11 07:42:35;;;;;;;8.60;6.22;;;;;;;23.96;58.09;97148.28;2070651;28;20248;-71
2023/08/11 07:43:37;;;;;;;4.30;2.60;;;;;;;24.03;57.56;97140.56;2070728;28;20259;-71
2023/08/11 07:44:38;;;;;;;5.97;2.65;;;;;;;24.36;57.14;97143.75;2071346;28;20427;-71
2023/08/11 07:45:40;;;;;;;3.65;2.30;;;;;;;24.76;55.87;97152.56;2070111;28;20277;-71
2023/08/11 07:46:42;;;;;;;9.13;3.00;;;;;;;24.20;57.68;97149.69;2070747;28;20818;-71
2023/08/11 07:47:43;;;;;;;12.90;2.75;;;;;;;24.31;57.80;97148.69;2070066;28;20544;-71
2023/08/11 07:48:45;;;;;;;8.13;2.85;;;;;;;24.02;57.60;97149.53;2070692;28;20202;-71
2023/08/11 07:49:46;;;;;;;4.70;2.60;;;;;;;24.21;58.07;97156.69;2070470;28;20715;-71
2023/08/11 07:50:48;;;;;;;8.00;2.90;;;;;;;24.17;56.93;97162.47;2069828;28;20325;-72
2023/08/11 07:51:50;;;;;;;4.25;2.35;;;;;;;24.03;57.19;97150.41;2070709;28;20732;-72
2023/08/11 07:52:51;;;;;;;5.78;3.17;;;;;;;24.00;57.02;97142.66;2070742;28;20238;-74
2023/08/11 07:53:53;;;;;;;4.18;2.13;;;;;;;24.20;57.45;97147.03;2070491;28;20194;-73
2023/08/11 07:54:54;;;;;;;8.15;2.58;;;;;;;24.17;56.66;97149.97;2070181;28;20198;-73
2023/08/11 07:55:56;;;;;;;5.13;2.88;;;;;;;24.21;57.50;97148.69;2070345;28;20589;-74
2023/08/11 07:56:57;;;;;;;5.00;3.05;;;;;;;24.34;57.14;97153.75;2070537;28;20218;-73
2023/08/11 07:57:59;;;;;;;6.97;2.97;;;;;;;24.39;56.94;97158.66;2070625;28;20737;-73
2023/08/11 07:59:00;;;;;;;3.25;2.25;;;;;;;24.19;57.23;97161.34;2070609;28;20225;-74
2023/08/11 08:00:04;;;;;;;7.43;2.80;;;;;;;24.25;57.53;97155.44;2070269;28;20688;-73
2023/08/11 08:01:08;;;;;;;4.72;2.90;;;;;;;24.21;57.51;97156.69;2069541;28;20262;-74
2023/08/11 08:02:12;;;;;;;7.88;2.85;;;;;;;24.14;57.41;97155.59;2070032;28;20240;-73
2023/08/11 08:03:14;;;;;;;10.30;3.42;;;;;;;24.05;57.66;97149.28;2070607;28;20514;-73
2023/08/11 08:04:19;;;;;;;4.15;2.45;;;;;;;24.13;57.04;97156.56;2070478;28;20202;-73
2023/08/11 08:05:20;;;;;;;5.45;2.53;;;;;;;24.21;57.11;97154.03;2069732;28;20279;-73
2023/08/11 08:06:22;;;;;;;5.43;2.95;;;;;;;24.14;56.51;97160.94;2070102;28;20266;-73
2023/08/11 08:07:23;;;;;;;5.65;2.22;;;;;;;24.11;57.06;97162.06;2070331;28;20637;-71
2023/08/11 08:08:25;;;;;;;6.25;2.60;;;;;;;24.52;57.56;97169.88;2070596;28;20209;-72
2023/08/11 08:09:26;;;;;;;5.05;3.03;;;;;;;24.99;56.83;97163.72;2070423;28;20190;-69
2023/08/11 08:10:28;;;;;;;4.72;2.28;;;;;;;24.80;55.48;97163.78;2070237;28;20221;-70
2023/08/11 08:11:29;;;;;;;4.47;2.55;;;;;;;24.61;55.72;97165.50;2070282;28;20209;-72
2023/08/11 08:12:31;;;;;;;5.95;2.70;;;;;;;24.88;56.06;97167.41;2070207;28;20204;-69
2023/08/11 08:13:33;;;;;;;5.47;2.70;;;;;;;24.31;56.65;97166.53;2070540;28;20233;-69
2023/08/11 08:14:34;;;;;;;4.68;2.97;;;;;;;24.38;56.23;97162.28;2070241;28;20194;-70
2023/08/11 08:15:36;;;;;;;5.93;3.03;;;;;;;24.52;56.72;97167.19;2070273;28;20312;-71
2023/08/11 08:16:44;;;;;;;4.30;2.60;;;;;;;24.84;55.23;97167.88;2070018;28;20584;-69
2023/08/11 08:17:46;;;;;;;5.88;2.75;;;;;;;24.69;55.84;97164.81;2070382;28;20202;-70
2023/08/11 08:18:48;;;;;;;5.55;3.58;;;;;;;25.11;55.27;97172.38;2070549;28;20194;-75
2023/08/11 08:19:49;;;;;;;9.07;2.72;;;;;;;25.29;54.86;97174.28;2069639;28;20289;-75
2023/08/11 08:20:51;;;;;;;6.45;3.13;;;;;;;25.00;55.78;97168.09;2069791;28;20194;-74
2023/08/11 08:21:53;;;;;;;7.63;3.13;;;;;;;24.80;55.99;97169.13;2070319;28;20634;-74
2023/08/11 08:22:54;;;;;;;9.50;3.55;;;;;;;24.59;56.82;97168.31;2070132;28;20210;-73
2023/08/11 08:23:55;;;;;;;4.28;3.10;;;;;;;24.58;56.63;97171.97;2070345;28;20190;-74
2023/08/11 08:24:57;;;;;;;5.30;2.78;;;;;;;24.38;57.19;97171.16;2069866;28;20704;-74
2023/08/11 08:25:58;;;;;;;10.10;2.88;;;;;;;24.41;57.42;97168.19;2070277;28;20201;-71
2023/08/11 08:27:00;;;;;;;6.93;2.60;;;;;;;24.68;57.91;97171.94;2070278;28;20201;-73
2023/08/11 08:28:01;;;;;;;7.63;3.00;;;;;;;25.20;57.84;97171.50;2067381;28;20191;-74
2023/08/11 08:29:07;;;;;;;7.30;3.10;;;;;;;24.96;56.86;97166.66;2066074;28;20850;-72
2023/08/11 08:30:10;;;;;;;5.80;2.80;;;;;;;24.89;57.40;97177.09;2064459;28;20227;-73
2023/08/11 08:31:12;;;;;;;5.75;2.90;;;;;;;24.92;56.41;97168.81;2064677;28;20241;-74
2023/08/11 08:32:13;;;;;;;5.75;3.42;;;;;;;24.79;56.68;97176.28;2064986;28;20206;-68
2023/08/11 08:33:15;;;;;;;7.32;3.33;;;;;;;24.38;57.52;97167.63;2064912;28;20252;-66
2023/08/11 08:34:16;;;;;;;6.32;3.35;;;;;;;24.90;57.25;97167.25;2063657;28;20240;-69
2023/08/11 08:37:44;;;;;;;6.50;3.20;;;;;;;24.98;57.47;97172.72;2100947;27;20574;-71
2023/08/11 08:38:46;;;;;;;6.63;3.90;;;;;;;24.89;57.52;97169.09;2091078;28;20336;-76
2023/08/11 08:41:50;;;;;;;5.35;2.90;;;;;;;25.52;55.83;97170.25;2100830;27;20562;-71
2023/08/11 08:42:52;;;;;;;91.15;58.00;;;;;;;25.82;56.22;97168.19;2098418;28;20193;-70
2023/08/11 08:43:55;;;;;;;16.70;11.43;;;;;;;26.06;55.80;97174.81;2101523;28;20187;-70
2023/08/11 08:47:28;;;;;;;7.18;3.58;;;;;;;26.75;54.81;97169.69;2089621;28;20566;-74
2023/08/11 08:48:52;;;;;;;4.55;2.35;;;;;;;26.46;54.49;97167.28;2089873;28;20196;-74
2023/08/11 08:49:55;;;;;;;5.53;3.00;;;;;;;25.98;54.40;97164.84;2087016;28;20223;-74
2023/08/11 08:53:35;;;;;;;6.72;2.70;;;;;;;25.24;55.85;97164.88;2087059;28;20563;-74
2023/08/11 08:54:38;;;;;;;6.32;3.10;;;;;;;25.33;56.97;97167.63;2081500;28;20643;-75
2023/08/11 08:55:40;;;;;;;6.30;3.13;;;;;;;25.45;55.66;97169.16;2062711;28;20226;-75
2023/08/11 08:56:42;;;;;;;6.47;2.70;;;;;;;25.51;56.12;97168.56;2063657;28;20195;-75
2023/08/11 09:00:36;;;;;;;5.15;3.10;;;;;;;25.41;56.06;97167.78;2083356;28;20560;-75
2023/08/11 09:01:41;;;;;;;6.30;2.55;;;;;;;25.41;56.33;97170.44;2081933;28;20205;-75
2023/08/11 09:02:44;;;;;;;7.07;2.75;;;;;;;25.51;56.12;97168.56;2084723;28;20924;-76
2023/08/11 09:03:46;;;;;;;5.25;2.65;;;;;;;25.67;55.55;97159.03;2084175;28;20193;-76
2023/08/11 09:07:41;;;;;;;5.15;2.80;;;;;;;25.68;56.58;97164.22;2099360;27;20558;-76
2023/08/11 09:08:42;;;;;;;4.70;2.72;;;;;;;25.91;55.86;97164.63;2096781;28;20748;-77
2023/08/11 09:09:44;;;;;;;9.80;3.58;;;;;;;26.14;56.21;97172.19;2099384;28;20219;-76
2023/08/11 09:10:45;;;;;;;6.25;2.85;;;;;;;25.96;55.27;97157.97;2079542;28;20193;-77
2023/08/11 09:14:38;;;;;;;4.38;2.83;;;;;;;26.37;54.42;97158.34;2085989;27;20562;-77
2023/08/11 09:15:39;;;;;;;6.28;3.08;;;;;;;26.10;54.73;97157.47;2070350;28;20692;-77
2023/08/11 09:16:41;;;;;;;6.32;2.65;;;;;;;25.95;53.88;97135.72;2070627;28;20364;-77
2023/08/11 09:17:43;;;;;;;5.00;2.78;;;;;;;25.97;54.69;97159.66;2074967;28;20203;-77
2023/08/11 09:21:32;;;;;;;9.25;3.05;;;;;;;26.17;55.93;97150.50;2087103;28;20556;-76
2023/08/11 09:22:36;;;;;;;9.52;3.47;;;;;;;26.68;55.94;97156.06;2080945;28;20703;-76
2023/08/11 09:23:37;;;;;;;4.53;2.75;;;;;;;26.82;54.48;97164.56;2079570;28;20716;-76
2023/08/11 09:24:40;;;;;;;4.63;3.05;;;;;;;26.79;54.13;97151.47;2080716;28;20221;-76
2023/08/11 09:25:42;;;;;;;8.95;3.13;;;;;;;26.54;53.39;97148.59;2081448;28;20355;-76
2023/08/11 09:29:45;;;;;;;5.50;2.92;;;;;;;27.34;53.33;97150.22;2081211;28;20561;-74
2023/08/11 09:30:48;;;;;;;4.45;2.50;;;;;;;27.59;53.64;97153.84;2081600;28;20608;-75
2023/08/11 09:31:54;;;;;;;8.70;2.55;;;;;;;27.46;52.12;97154.28;2079007;28;20660;-75
2023/08/11 09:32:59;;;;;;;5.65;2.80;;;;;;;27.78;52.34;97147.34;2079642;28;20189;-75
2023/08/11 09:34:11;;;;;;;5.85;2.90;;;;;;;27.33;51.93;97151.22;2083273;28;20200;-74
2023/08/11 09:38:18;;;;;;;5.10;2.63;;;;;;;27.92;52.25;97153.06;2108295;27;21101;-74
2023/08/11 09:39:20;;;;;;;5.85;3.42;;;;;;;28.22;51.40;97156.13;2106830;28;20236;-74
2023/08/11 09:40:22;;;;;;;4.63;3.00;;;;;;;27.96;52.29;97143.66;2097795;28;20264;-74
2023/08/11 09:41:24;;;;;;;5.75;3.00;;;;;;;28.24;51.81;97149.59;2094725;28;20200;-73
2023/08/11 09:42:28;;;;;;;4.85;2.50;;;;;;;28.49;51.44;97149.56;2094745;28;20204;-73
2023/08/11 09:43:30;;;;;;;5.93;2.97;;;;;;;28.57;50.38;97152.25;2092553;28;20245;-73
2023/08/11 09:47:47;;;;;;;13.20;2.50;;;;;;;28.28;50.18;97142.88;2091258;27;20559;-72
2023/08/11 09:48:49;;;;;;;6.28;2.65;;;;;;;28.02;49.93;97145.69;2087247;28;20218;-72
2023/08/11 09:49:54;;;;;;;8.13;2.47;;;;;;;27.86;50.64;97157.25;2086684;28;20231;-73
2023/08/11 09:50:57;;;;;;;9.35;3.03;;;;;;;28.19;50.94;97158.13;2074155;28;20582;-72
2023/08/11 09:52:04;;;;;;;5.20;2.60;;;;;;;28.62;51.49;97152.59;2070411;28;20547;-73
2023/08/11 09:53:06;;;;;;;3.42;2.22;;;;;;;28.71;50.99;97155.25;2074216;28;20435;-72
2023/08/11 09:57:21;;;;;;;21.58;16.40;;;;;;;28.97;49.60;97169.31;2083303;28;20553;-71
2023/08/11 09:58:26;;;;;;;8.65;3.85;;;;;;;28.87;49.12;97162.47;2083188;28;20721;-70
2023/08/11 09:59:28;;;;;;;9.38;2.65;;;;;;;28.46;47.24;97155.28;2082988;28;20192;-71
2023/08/11 10:00:31;;;;;;;6.90;2.38;;;;;;;28.04;48.21;97159.81;2075177;28;20217;-70
2023/08/11 10:01:35;;;;;;;2.90;2.28;;;;;;;27.72;49.04;97156.06;2073966;28;20204;-70
2023/08/11 10:02:43;;;;;;;6.63;2.67;;;;;;;28.13;48.90;97157.97;2074041;28;20201;-70
2023/08/11 10:03:45;;;;;;;5.78;2.63;;;;;;;28.15;49.01;97154.13;2074394;28;20865;-70
2023/08/11 10:04:56;;;;;;;10.53;2.90;;;;;;;27.96;49.33;97157.94;2073828;28;20237;-68
2023/08/11 10:06:01;;;;;;;4.90;2.55;;;;;;;28.59;49.90;97152.06;2071223;28;20442;-71
2023/08/11 10:07:09;;;;;;;10.30;2.33;;;;;;;28.11;49.80;97151.94;2072254;28;20194;-71
2023/08/11 10:12:08;;;;;;;4.15;2.80;;;;;;;28.99;51.02;97156.53;2084403;28;20570;-75
2023/08/11 10:13:22;;;;;;;9.97;2.50;;;;;;;29.39;51.93;97155.75;2083087;28;20618;-75
2023/08/11 10:14:25;;;;;;;3.80;2.37;;;;;;;29.10;49.29;97159.88;2082707;28;20436;-75
2023/08/11 10:15:27;;;;;;;8.37;3.67;;;;;;;28.99;48.62;97153.84;2069968;28;20905;-75
2023/08/11 10:16:30;;;;;;;5.18;2.25;;;;;;;29.37;49.35;97153.25;2066184;28;20446;-75
2023/08/11 10:17:32;;;;;;;5.50;2.20;;;;;;;29.40;48.15;97147.50;2064277;28;20213;-75
2023/08/11 10:18:35;;;;;;;7.53;2.60;;;;;;;29.03;50.20;97157.03;2065491;28;20428;-75
2023/08/11 10:19:37;;;;;;;5.00;2.67;;;;;;;29.56;49.00;97151.13;2066123;28;20428;-76
2023/08/11 10:20:39;;;;;;;7.00;2.70;;;;;;;28.69;49.83;97152.75;2069711;28;20502;-75
2023/08/11 10:21:41;;;;;;;3.30;2.27;;;;;;;28.99;48.52;97159.22;2074418;28;20526;-75
2023/08/11 10:22:43;;;;;;;3.03;2.10;;;;;;;29.65;48.80;97153.59;2076551;28;20986;-77
2023/08/11 10:27:45;;;;;;;12.30;2.57;;;;;;;29.96;48.47;97160.00;2102772;27;20864;-75
2023/08/11 10:28:47;;;;;;;3.90;2.40;;;;;;;29.81;47.86;97151.81;2098662;28;20513;-75
2023/08/11 10:29:50;;;;;;;7.00;2.60;;;;;;;29.90;47.55;97155.31;2096196;28;20477;-75
2023/08/11 10:31:00;;;;;;;4.57;2.30;;;;;;;29.90;46.72;97156.19;2081524;28;20447;-75
2023/08/11 10:32:01;;;;;;;5.47;2.33;;;;;;;29.67;47.84;97164.16;2083974;28;20471;-75
2023/08/11 10:33:04;;;;;;;7.00;2.17;;;;;;;30.11;47.52;97155.50;2080980;28;20867;-75
2023/08/11 10:34:11;;;;;;;3.23;2.20;;;;;;;30.26;48.19;97160.94;2082852;28;20514;-75
2023/08/11 10:35:34;;;;;;;6.10;2.57;;;;;;;30.51;47.02;97155.34;2077059;28;20515;-74
2023/08/11 10:36:37;;;;;;;5.33;2.40;;;;;;;30.25;46.18;97153.06;2072974;28;20485;-75
2023/08/11 10:37:38;;;;;;;3.50;2.63;;;;;;;30.83;47.05;97149.84;2073252;28;20429;-75
2023/08/11 10:38:40;;;;;;;3.20;2.07;;;;;;;31.05;45.49;97161.56;2072718;28;20439;-75
2023/08/11 10:39:41;;;;;;;3.70;2.20;;;;;;;30.80;45.89;97163.69;2072254;28;20457;-74
2023/08/11 10:40:44;;;;;;;3.93;2.47;;;;;;;31.06;45.96;97164.09;2072600;28;20501;-74
2023/08/11 10:41:46;;;;;;;5.80;2.77;;;;;;;31.51;45.64;97158.66;2072294;28;20481;-74
2023/08/11 10:42:50;;;;;;;4.40;2.30;;;;;;;30.65;45.88;97158.28;2070723;28;20454;-74
2023/08/11 10:43:54;;;;;;;5.30;2.20;;;;;;;30.62;46.39;97167.56;2074373;28;20844;-74
2023/08/11 10:45:07;;;;;;;4.40;2.00;;;;;;;30.87;45.88;97164.63;2072956;28;20465;-74
2023/08/11 10:50:53;;;;;;;5.93;2.40;;;;;;;30.69;46.81;97163.13;2085232;28;20551;-74
2023/08/11 10:51:59;;;;;;;4.83;2.17;;;;;;;30.53;46.62;97168.66;2081192;28;20495;-74
2023/08/11 10:53:19;;;;;;;6.90;2.10;;;;;;;30.62;46.32;97163.00;2081566;28;20560;-74
2023/08/11 10:54:23;;;;;;;5.77;2.50;;;;;;;31.15;45.08;97164.84;2082483;28;20548;-75
2023/08/11 10:55:29;;;;;;;8.07;2.37;;;;;;;30.86;45.71;97163.78;2083071;28;20545;-74
2023/08/11 10:56:36;;;;;;;5.53;1.80;;;;;;;30.88;45.63;97172.53;2082093;28;20430;-74
2023/08/11 10:57:39;;;;;;;3.80;2.10;;;;;;;30.51;46.29;97166.13;2084196;28;20538;-74
2023/08/11 10:58:43;;;;;;;4.00;1.80;;;;;;;30.63;45.91;97171.94;2080043;28;20643;-74
2023/08/11 10:59:45;;;;;;;7.37;2.20;;;;;;;30.39;46.21;97173.78;2082164;28;20975;-71
2023/08/11 11:00:46;;;;;;;15.40;11.90;;;;;;;30.57;46.09;97162.72;2083938;28;20476;-74
2023/08/11 11:01:50;;;;;;;18.90;14.40;;;;;;;30.97;45.88;97169.72;2081956;28;20445;-75
2023/08/11 11:02:53;;;;;;;6.80;4.87;;;;;;;30.73;45.73;97163.59;2081878;28;20430;-72
2023/08/11 11:03:54;;;;;;;4.60;2.80;;;;;;;30.98;45.06;97169.53;2082696;28;20426;-73
2023/08/11 11:04:57;;;;;;;6.67;4.00;;;;;;;31.22;44.82;97167.63;2078824;28;20427;-72
2023/08/11 11:06:04;;;;;;;5.23;3.57;;;;;;;31.47;44.79;97164.63;2083742;28;20434;-73
2023/08/11 11:07:05;;;;;;;5.60;2.00;;;;;;;31.42;43.60;97160.63;2081341;28;20523;-72
2023/08/11 11:08:07;;;;;;;4.87;1.90;;;;;;;31.16;43.69;97162.97;2079714;28;20426;-73
2023/08/11 11:09:08;;;;;;;4.43;1.90;;;;;;;31.15;44.94;97156.75;2081634;28;20946;-72
2023/08/11 11:10:10;;;;;;;6.83;2.37;;;;;;;31.32;44.49;97156.56;2080143;28;20469;-72
2023/08/11 11:11:11;;;;;;;17.40;2.50;;;;;;;32.04;43.94;97155.72;2082458;28;20429;-72
2023/08/11 11:12:14;;;;;;;4.97;2.43;;;;;;;32.02;43.74;97152.41;2079015;28;20419;-72
2023/08/11 11:13:15;;;;;;;4.27;2.50;;;;;;;32.13;43.68;97155.63;2082328;28;20430;-72
2023/08/11 11:14:17;;;;;;;2.50;2.00;;;;;;;32.04;43.49;97147.63;2082572;28;20505;-72
2023/08/11 11:15:18;;;;;;;4.60;2.10;;;;;;;31.69;43.85;97147.50;2083151;28;20465;-73
2023/08/11 11:16:21;;;;;;;4.43;2.17;;;;;;;31.56;44.06;97150.00;2082899;28;20482;-74
2023/08/11 11:17:22;;;;;;;7.37;2.03;;;;;;;31.63;44.17;97148.25;2083010;28;20426;-72
2023/08/11 11:18:24;;;;;;;4.87;1.90;;;;;;;31.66;43.74;97153.25;2082293;28;20436;-72
2023/08/11 11:24:31;;;;;;;3.77;1.90;;;;;;;31.83;44.58;97139.53;2100335;27;21118;-71
2023/08/11 11:25:33;;;;;;;8.60;2.47;;;;;;;31.71;44.71;97139.19;2090631;28;20875;-72
2023/08/11 11:26:35;;;;;;;15.30;2.70;;;;;;;32.02;44.92;97143.44;2090526;28;21009;-72
2023/08/11 11:27:43;;;;;;;8.10;1.70;;;;;;;32.74;43.38;97138.91;2089086;28;20471;-72
2023/08/11 11:28:44;;;;;;;11.07;2.30;;;;;;;32.73;43.67;97129.09;2090220;28;20417;-72
2023/08/11 11:29:46;;;;;;;3.30;2.20;;;;;;;32.87;42.88;97138.16;2087687;28;20433;-71
2023/08/11 11:30:48;;;;;;;7.80;2.00;;;;;;;32.46;42.50;97131.59;2080985;28;20429;-71
2023/08/11 11:31:50;;;;;;;5.30;2.37;;;;;;;31.78;44.32;97120.38;2078504;28;20431;-72
2023/08/11 11:32:52;;;;;;;6.67;1.70;;;;;;;31.42;44.38;97127.41;2080671;28;20433;-72
2023/08/11 11:33:54;;;;;;;8.03;2.43;;;;;;;31.72;43.64;97125.50;2078949;28;20434;-72
2023/08/11 11:34:56;;;;;;;3.90;2.30;;;;;;;32.35;43.83;97121.34;2079275;28;20438;-72
2023/08/11 11:35:58;;;;;;;3.30;2.10;;;;;;;32.67;43.21;97119.06;2079522;28;20522;-72
2023/08/11 11:37:00;;;;;;;12.73;2.70;;;;;;;32.34;43.55;97123.22;2078076;28;20907;-72
2023/08/11 11:38:03;;;;;;;11.80;2.00;;;;;;;32.32;42.52;97119.84;2088753;28;20565;-72
2023/08/11 11:39:05;;;;;;;4.17;2.07;;;;;;;32.55;42.44;97121.50;2089230;28;20429;-72
2023/08/11 11:40:09;;;;;;;4.43;2.20;;;;;;;32.38;43.24;97110.97;2076843;28;20466;-72
2023/08/11 11:41:15;;;;;;;5.73;2.30;;;;;;;32.71;43.32;97118.47;2077990;28;20439;-72
2023/08/11 11:42:17;;;;;;;7.17;2.10;;;;;;;32.16;42.92;97112.81;2080057;28;20435;-72
2023/08/11 11:43:19;;;;;;;4.23;2.40;;;;;;;32.35;43.51;97110.53;2079146;28;21006;-73
2023/08/11 11:44:23;;;;;;;4.77;2.00;;;;;;;33.01;43.59;97118.28;2082894;28;20531;-69
2023/08/11 11:45:26;;;;;;;5.53;2.20;;;;;;;33.18;42.78;97116.06;2077289;28;20471;-74
2023/08/11 11:46:31;;;;;;;12.20;2.63;;;;;;;33.33;42.58;97115.09;2082339;28;20426;-73
2023/08/11 11:47:34;;;;;;;3.60;2.60;;;;;;;33.47;42.04;97116.84;2080471;28;20430;-75
2023/08/11 11:48:36;;;;;;;4.90;2.50;;;;;;;33.29;42.68;97121.97;2077965;28;20946;-69
2023/08/11 11:49:37;;;;;;;3.63;2.30;;;;;;;33.05;43.40;97118.69;2080085;28;21390;-69
2023/08/11 11:50:39;;;;;;;6.23;2.07;;;;;;;33.07;43.36;97126.63;2079828;28;21098;-72
2023/08/11 11:51:42;;;;;;;12.43;2.57;;;;;;;33.56;43.50;97124.75;2079810;28;20526;-72
2023/08/11 11:52:47;;;;;;;4.03;1.93;;;;;;;33.92;42.77;97124.47;2078963;28;20434;-73
2023/08/11 11:53:53;;;;;;;6.50;2.50;;;;;;;34.09;42.17;97135.72;2075999;28;20541;-69
2023/08/11 11:54:55;;;;;;;2.60;2.00;;;;;;;33.54;41.94;97117.69;2082935;28;20429;-72
2023/08/11 11:55:56;;;;;;;4.10;2.30;;;;;;;33.88;41.99;97128.63;2080026;28;20439;-70
2023/08/11 11:56:58;;;;;;;3.30;1.87;;;;;;;34.09;41.52;97124.91;2081187;28;20425;-70
2023/08/11 11:58:05;;;;;;;7.10;2.40;;;;;;;33.95;42.70;97123.22;2075303;28;20720;-69
2023/08/11 11:59:07;;;;;;;9.87;2.20;;;;;;;34.22;41.59;97124.09;2079555;28;20513;-69
2023/08/11 12:00:16;;;;;;;18.50;2.70;;;;;;;32.87;41.32;97127.34;2080016;28;20981;-74
2023/08/11 12:01:28;;;;;;;17.13;2.80;;;;;;;32.86;42.59;97128.38;2081023;28;20551;-71
2023/08/11 12:02:30;;;;;;;4.80;2.00;;;;;;;32.84;42.91;97125.88;2079360;28;20431;-73
2023/08/11 12:03:31;;;;;;;5.80;2.10;;;;;;;33.18;42.56;97126.06;2078727;28;20473;-69
2023/08/11 12:04:33;;;;;;;11.87;4.53;;;;;;;33.10;41.54;97124.34;2078015;28;20458;-73
2023/08/11 12:05:35;;;;;;;15.03;11.03;;;;;;;32.34;42.27;97116.94;2079897;28;21078;-73
2023/08/11 12:06:36;;;;;;;7.30;6.23;;;;;;;32.22;42.86;97122.06;2079138;28;20431;-73
2023/08/11 12:07:38;;;;;;;8.10;4.30;;;;;;;32.79;43.10;97124.81;2079749;28;20426;-72
2023/08/11 12:08:44;;;;;;;7.23;5.90;;;;;;;33.12;43.68;97124.97;2080321;28;20426;-72
2023/08/11 12:09:50;;;;;;;4.80;2.80;;;;;;;33.48;43.35;97121.19;2076735;28;20434;-72
2023/08/11 12:10:52;;;;;;;3.67;2.03;;;;;;;33.12;41.73;97124.97;2079345;28;20491;-71
2023/08/11 12:11:55;;;;;;;4.10;2.10;;;;;;;34.00;42.61;97124.28;2079100;28;20487;-71
2023/08/11 12:13:03;;;;;;;3.93;2.40;;;;;;;34.47;41.88;97132.44;2079177;28;20452;-71
2023/08/11 12:14:05;;;;;;;10.23;2.03;;;;;;;34.72;41.27;97120.13;2078798;28;20424;-71
2023/08/11 12:15:09;;;;;;;4.97;2.07;;;;;;;34.63;41.35;97114.91;2079671;28;20462;-71
2023/08/11 12:16:14;;;;;;;4.00;2.33;;;;;;;33.99;40.48;97114.50;2079260;28;20544;-71
2023/08/11 12:17:16;;;;;;;6.70;2.43;;;;;;;33.25;40.34;97118.78;2074281;28;20844;-72
2023/08/11 12:18:19;;;;;;;4.57;2.00;;;;;;;33.25;41.37;97110.69;2076868;28;20443;-71
2023/08/11 12:19:22;;;;;;;7.23;2.20;;;;;;;33.52;41.60;97113.50;2076706;28;20462;-71
2023/08/11 12:20:24;;;;;;;3.37;2.10;;;;;;;32.73;42.30;97112.88;2079700;28;20454;-71
2023/08/11 12:21:26;;;;;;;2.37;1.90;;;;;;;32.86;42.82;97113.00;2080633;28;20517;-71
2023/08/11 12:22:27;;;;;;;3.47;2.37;;;;;;;33.47;42.40;97116.00;2082599;28;20434;-71
2023/08/11 12:23:29;;;;;;;6.00;1.97;;;;;;;33.34;41.74;97112.22;2079781;28;20429;-71
2023/08/11 12:24:31;;;;;;;3.10;2.20;;;;;;;32.74;42.98;97114.56;2080159;28;20489;-71
2023/08/11 12:25:32;;;;;;;7.07;1.93;;;;;;;31.89;43.97;97109.06;2080924;28;20512;-72
2023/08/11 12:26:34;;;;;;;6.33;2.20;;;;;;;32.54;42.52;97109.84;2079339;28;20425;-71
2023/08/11 12:27:36;;;;;;;6.93;2.63;;;;;;;32.50;42.91;97110.44;2077599;28;20456;-72
2023/08/11 12:28:37;;;;;;;4.50;2.10;;;;;;;33.29;42.75;97111.97;2079381;28;20428;-72
2023/08/11 12:29:39;;;;;;;4.30;2.10;;;;;;;34.10;42.06;97114.91;2081677;28;20418;-72
2023/08/11 12:30:40;;;;;;;2.70;1.90;;;;;;;33.76;41.11;97106.69;2081161;28;20470;-74
2023/08/11 12:31:42;;;;;;;5.00;2.67;;;;;;;33.48;43.80;97112.25;2081830;28;20821;-65
2023/08/11 12:32:45;;;;;;;5.30;2.60;;;;;;;33.96;43.29;97114.88;2081594;28;20437;-69
2023/08/11 12:33:47;;;;;;;6.17;2.17;;;;;;;34.23;42.96;97114.91;2083945;28;20488;-71
2023/08/11 12:34:49;;;;;;;6.63;1.83;;;;;;;34.38;41.69;97109.31;2078443;28;20436;-69
2023/08/11 12:35:50;;;;;;;3.83;2.10;;;;;;;34.67;41.93;97112.63;2074170;28;20427;-69
2023/08/11 12:36:52;;;;;;;3.70;2.40;;;;;;;34.41;41.67;97113.47;2075430;28;20924;-69
2023/08/11 12:37:54;;;;;;;4.17;1.93;;;;;;;34.41;41.83;97110.75;2075314;28;20489;-67
2023/08/11 12:38:56;;;;;;;7.63;2.40;;;;;;;34.89;42.61;97112.41;2075306;28;20536;-67
2023/08/11 12:39:57;;;;;;;4.20;2.30;;;;;;;33.58;42.90;97106.47;2071811;28;20432;-67
2023/08/11 12:40:59;;;;;;;4.80;2.80;;;;;;;34.04;43.44;97113.03;2075956;28;20435;-70
2023/08/11 12:42:00;;;;;;;3.33;2.07;;;;;;;33.72;42.72;97112.75;2072952;28;20484;-71
2023/08/11 12:43:02;;;;;;;3.57;2.00;;;;;;;33.59;43.93;97114.38;2073819;28;21037;-71
2023/08/11 12:44:04;;;;;;;9.57;2.33;;;;;;;33.61;43.93;97114.16;2074040;28;20488;-71
2023/08/11 12:45:07;;;;;;;4.90;2.33;;;;;;;34.07;43.15;97120.72;2072361;28;21089;-71
2023/08/11 12:46:08;;;;;;;4.30;2.20;;;;;;;34.48;43.67;97119.75;2068337;28;20442;-71
2023/08/11 12:47:10;;;;;;;16.13;2.40;;;;;;;34.93;43.68;97117.19;2072370;28;20434;-71
2023/08/11 12:48:11;;;;;;;6.40;2.30;;;;;;;34.72;42.02;97114.72;2077766;28;20434;-71
2023/08/11 12:49:13;;;;;;;10.43;1.90;;;;;;;34.55;42.29;97112.44;2076364;28;20952;-71
2023/08/11 12:50:15;;;;;;;7.20;2.17;;;;;;;34.70;42.20;97109.47;2075531;28;20451;-71
2023/08/11 12:51:16;;;;;;;2.97;1.93;;;;;;;34.87;42.13;97111.75;2077278;28;20434;-72
2023/08/11 12:52:17;;;;;;;7.27;2.53;;;;;;;34.76;42.15;97122.19;2075514;28;20430;-72
2023/08/11 12:53:19;;;;;;;4.40;2.60;;;;;;;33.85;42.16;97113.63;2073650;28;20442;-72
2023/08/11 12:54:20;;;;;;;3.43;2.00;;;;;;;34.25;41.60;97123.66;2073040;28;20438;-71
2023/08/11 12:55:26;;;;;;;4.03;2.10;;;;;;;34.38;42.46;97116.63;2073577;28;20553;-72
2023/08/11 12:56:27;;;;;;;4.57;1.93;;;;;;;33.98;40.40;97117.38;2075147;28;20768;-72
2023/08/11 12:57:29;;;;;;;2.73;1.90;;;;;;;34.01;42.02;97120.50;2073370;28;20418;-72
2023/08/11 12:58:30;;;;;;;3.37;2.07;;;;;;;34.05;42.15;97128.25;2075553;28;21004;-72
2023/08/11 12:59:32;;;;;;;4.50;2.13;;;;;;;33.80;43.61;97118.81;2070504;28;20451;-72
2023/08/11 13:00:36;;;;;;;5.07;2.23;;;;;;;33.52;41.96;97116.22;2074011;28;20466;-71
2023/08/11 13:01:37;;;;;;;8.20;2.00;;;;;;;33.01;44.00;97115.59;2072139;28;20432;-71